createdAt,value
2024-04-16T00:00:28.504Z,21.20
2024-04-16T00:01:34.866Z,21.19
2024-04-16T00:02:41.188Z,21.20
2024-04-16T00:03:47.493Z,21.19
2024-04-16T00:04:53.859Z,21.19
2024-04-16T00:06:00.181Z,21.19
2024-04-16T00:07:06.516Z,21.18
2024-04-16T00:08:12.811Z,21.18
2024-04-16T00:09:19.169Z,21.18
2024-04-16T00:10:25.611Z,21.17
2024-04-16T00:11:32.006Z,21.17
2024-04-16T00:12:38.300Z,21.17
2024-04-16T00:13:44.616Z,21.17
2024-04-16T00:14:50.941Z,21.16
2024-04-16T00:15:57.292Z,21.15
2024-04-16T00:17:03.611Z,21.15
2024-04-16T00:18:09.951Z,21.15
2024-04-16T00:19:16.362Z,21.15
2024-04-16T00:20:22.644Z,21.14
2024-04-16T00:21:28.974Z,21.14
2024-04-16T00:22:35.361Z,21.14
2024-04-16T00:23:41.662Z,21.13
2024-04-16T00:24:47.988Z,21.13
2024-04-16T00:25:54.342Z,21.12
2024-04-16T00:27:00.635Z,21.12
2024-04-16T00:28:07.049Z,21.12
2024-04-16T00:29:13.371Z,21.11
2024-04-16T00:30:19.689Z,21.11
2024-04-16T00:31:26.094Z,21.10
2024-04-16T00:32:32.481Z,21.10
2024-04-16T00:33:38.828Z,21.09
2024-04-16T00:34:45.156Z,21.09
2024-04-16T00:35:51.482Z,21.09
2024-04-16T00:36:57.801Z,21.08
2024-04-16T00:38:04.165Z,21.08
2024-04-16T00:39:10.483Z,21.07
2024-04-16T00:40:16.826Z,21.07
2024-04-16T00:41:23.158Z,21.06
2024-04-16T00:42:29.462Z,21.06
2024-04-16T00:43:35.883Z,21.05
2024-04-16T00:44:42.171Z,21.05
2024-04-16T00:45:48.484Z,21.05
2024-04-16T00:46:54.800Z,21.04
2024-04-16T00:48:01.243Z,21.04
2024-04-16T00:49:07.606Z,21.04
2024-04-16T00:50:13.955Z,21.03
2024-04-16T00:51:20.279Z,21.03
2024-04-16T00:52:26.639Z,21.02
2024-04-16T00:53:32.936Z,21.02
2024-04-16T00:54:39.250Z,21.00
2024-04-16T00:55:45.561Z,21.00
2024-04-16T00:56:51.910Z,21.00
2024-04-16T00:57:58.246Z,20.99
2024-04-16T00:59:04.604Z,20.99
2024-04-16T01:00:10.914Z,20.98
2024-04-16T01:01:17.335Z,20.98
2024-04-16T01:02:23.653Z,20.98
2024-04-16T01:03:30.041Z,20.98
2024-04-16T01:04:36.524Z,20.97
2024-04-16T01:05:42.954Z,20.98
2024-04-16T01:06:49.234Z,20.97
2024-04-16T01:07:55.544Z,20.97
2024-04-16T01:09:01.875Z,20.96
2024-04-16T01:10:08.257Z,20.95
2024-04-16T01:11:14.634Z,20.94
2024-04-16T01:12:20.939Z,20.93
2024-04-16T01:13:27.269Z,20.92
2024-04-16T01:14:33.571Z,20.91
2024-04-16T01:15:39.901Z,20.91
2024-04-16T01:16:46.216Z,20.91
2024-04-16T01:17:52.608Z,20.91
2024-04-16T01:18:59.055Z,20.90
2024-04-16T01:20:05.364Z,20.89
2024-04-16T01:21:11.709Z,20.89
2024-04-16T01:22:18.039Z,20.89
2024-04-16T01:23:24.346Z,20.89
2024-04-16T01:24:30.674Z,20.88
2024-04-16T01:25:37.135Z,20.88
2024-04-16T01:26:43.481Z,20.87
2024-04-16T01:27:49.802Z,20.86
2024-04-16T01:28:56.117Z,20.85
2024-04-16T01:30:02.437Z,20.85
2024-04-16T01:31:08.863Z,20.85
2024-04-16T01:32:15.203Z,20.84
2024-04-16T01:33:21.515Z,20.84
2024-04-16T01:34:27.879Z,20.83
2024-04-16T01:35:34.176Z,20.82
2024-04-16T01:36:40.494Z,20.82
2024-04-16T01:37:46.849Z,20.81
2024-04-16T01:38:53.238Z,20.81
2024-04-16T01:39:59.534Z,20.81
2024-04-16T01:41:05.838Z,20.80
2024-04-16T01:42:12.153Z,20.79
2024-04-16T01:43:18.512Z,20.79
2024-04-16T01:44:24.816Z,20.79
2024-04-16T01:45:31.179Z,20.78
2024-04-16T01:46:37.523Z,20.78
2024-04-16T01:47:43.930Z,20.77
2024-04-16T01:48:50.260Z,20.77
2024-04-16T01:49:56.582Z,20.77
2024-04-16T01:51:02.902Z,20.76
2024-04-16T01:52:09.229Z,20.76
2024-04-16T01:53:15.538Z,20.75
2024-04-16T01:54:21.863Z,20.75
2024-04-16T01:55:28.220Z,20.74
2024-04-16T01:56:34.538Z,20.74
2024-04-16T01:57:40.872Z,20.74
2024-04-16T01:58:47.189Z,20.73
2024-04-16T01:59:53.543Z,20.72
2024-04-16T02:00:59.944Z,20.71
2024-04-16T02:02:06.254Z,20.70
2024-04-16T02:03:12.633Z,20.69
2024-04-16T02:04:19.054Z,20.69
2024-04-16T02:05:25.407Z,20.68
2024-04-16T02:06:31.720Z,20.68
2024-04-16T02:07:38.057Z,20.67
2024-04-16T02:08:44.378Z,20.67
2024-04-16T02:09:50.709Z,20.66
2024-04-16T02:10:57.049Z,20.66
2024-04-16T02:12:03.428Z,20.66
2024-04-16T02:13:09.736Z,20.65
2024-04-16T02:14:16.071Z,20.65
2024-04-16T02:15:22.373Z,20.65
2024-04-16T02:16:28.762Z,20.64
2024-04-16T02:17:35.770Z,20.64
2024-04-16T02:18:42.145Z,20.64
2024-04-16T02:19:48.475Z,20.63
2024-04-16T02:20:54.794Z,20.63
2024-04-16T02:22:03.194Z,20.62
2024-04-16T02:23:09.737Z,20.63
2024-04-16T02:24:16.110Z,20.61
2024-04-16T02:25:22.449Z,20.61
2024-04-16T02:26:28.759Z,20.61
2024-04-16T02:27:35.084Z,20.59
2024-04-16T02:28:41.426Z,20.59
2024-04-16T02:29:47.758Z,20.58
2024-04-16T02:30:54.082Z,20.56
2024-04-16T02:32:00.622Z,20.56
2024-04-16T02:33:07.119Z,20.55
2024-04-16T02:34:13.519Z,20.54
2024-04-16T02:35:19.811Z,20.54
2024-04-16T02:36:26.167Z,20.54
2024-04-16T02:37:32.539Z,20.53
2024-04-16T02:38:38.905Z,20.52
2024-04-16T02:39:45.223Z,20.52
2024-04-16T02:40:51.542Z,20.51
2024-04-16T02:41:57.866Z,20.51
2024-04-16T02:43:04.196Z,20.50
2024-04-16T02:44:10.549Z,20.49
2024-04-16T02:45:16.852Z,20.49
2024-04-16T02:46:23.232Z,20.48
2024-04-16T02:47:29.632Z,20.48
2024-04-16T02:48:35.945Z,20.47
2024-04-16T02:49:42.269Z,20.47
2024-04-16T02:50:48.598Z,20.47
2024-04-16T02:51:54.905Z,20.46
2024-04-16T02:53:01.223Z,20.46
2024-04-16T02:54:07.553Z,20.45
2024-04-16T02:55:13.932Z,20.44
2024-04-16T02:56:20.260Z,20.44
2024-04-16T02:57:26.589Z,20.44
2024-04-16T02:58:33.025Z,20.43
2024-04-16T02:59:39.346Z,20.43
2024-04-16T03:00:45.698Z,20.42
2024-04-16T03:01:52.022Z,20.40
2024-04-16T03:02:58.428Z,20.40
2024-04-16T03:04:04.793Z,20.38
2024-04-16T03:05:11.091Z,20.37
2024-04-16T03:06:17.436Z,20.37
2024-04-16T03:07:23.839Z,20.37
2024-04-16T03:08:30.165Z,20.36
2024-04-16T03:09:36.487Z,20.35
2024-04-16T03:10:42.876Z,20.35
2024-04-16T03:11:49.188Z,20.35
2024-04-16T03:12:55.505Z,20.35
2024-04-16T03:14:01.828Z,20.35
2024-04-16T03:15:08.139Z,20.35
2024-04-16T03:16:14.460Z,20.34
2024-04-16T03:17:20.841Z,20.34
2024-04-16T03:18:27.131Z,20.34
2024-04-16T03:19:33.496Z,20.34
2024-04-16T03:20:39.801Z,20.34
2024-04-16T03:21:46.096Z,20.33
2024-04-16T03:22:52.422Z,20.34
2024-04-16T03:23:58.751Z,20.33
2024-04-16T03:25:05.106Z,20.33
2024-04-16T03:26:11.413Z,20.33
2024-04-16T03:27:17.736Z,20.32
2024-04-16T03:28:24.108Z,20.32
2024-04-16T03:29:30.419Z,20.32
2024-04-16T03:30:36.736Z,20.32
2024-04-16T03:31:43.086Z,20.32
2024-04-16T03:32:49.483Z,20.32
2024-04-16T03:33:55.805Z,20.32
2024-04-16T03:35:02.120Z,20.32
2024-04-16T03:36:08.431Z,20.32
2024-04-16T03:37:14.784Z,20.32
2024-04-16T03:38:21.083Z,20.32
2024-04-16T03:39:27.401Z,20.32
2024-04-16T03:40:33.717Z,20.33
2024-04-16T03:41:40.033Z,20.32
2024-04-16T03:42:46.356Z,20.32
2024-04-16T03:43:55.850Z,20.33
2024-04-16T03:45:03.307Z,20.33
2024-04-16T03:46:09.655Z,20.33
2024-04-16T03:47:15.988Z,20.33
2024-04-16T03:48:22.439Z,20.33
2024-04-16T03:49:29.048Z,20.33
2024-04-16T03:50:35.356Z,20.33
2024-04-16T03:51:41.668Z,20.34
2024-04-16T03:52:47.991Z,20.34
2024-04-16T03:53:54.309Z,20.34
2024-04-16T03:55:00.714Z,20.34
2024-04-16T03:56:07.018Z,20.34
2024-04-16T03:57:13.347Z,20.34
2024-04-16T03:58:19.701Z,20.34
2024-04-16T03:59:25.990Z,20.35
2024-04-16T04:00:32.312Z,20.34
2024-04-16T04:01:38.723Z,20.35
2024-04-16T04:02:45.083Z,20.35
2024-04-16T04:03:51.428Z,20.35
2024-04-16T04:04:57.746Z,20.36
2024-04-16T04:06:04.078Z,20.35
2024-04-16T04:07:10.399Z,20.35
2024-04-16T04:08:16.738Z,20.35
2024-04-16T04:09:23.067Z,20.36
2024-04-16T04:10:29.409Z,20.35
2024-04-16T04:11:35.714Z,20.35
2024-04-16T04:12:42.020Z,20.35
2024-04-16T04:13:48.351Z,20.35
2024-04-16T04:14:54.691Z,20.36
2024-04-16T04:16:01.348Z,20.36
2024-04-16T04:17:07.704Z,20.35
2024-04-16T04:18:14.186Z,20.35
2024-04-16T04:19:20.609Z,20.35
2024-04-16T04:20:26.910Z,20.35
2024-04-16T04:21:33.222Z,20.35
2024-04-16T04:22:41.925Z,20.35
2024-04-16T04:23:49.311Z,20.35
2024-04-16T04:24:55.655Z,20.34
2024-04-16T04:26:01.966Z,20.35
2024-04-16T04:27:08.299Z,20.35
2024-04-16T04:28:14.629Z,20.34
2024-04-16T04:29:20.929Z,20.34
2024-04-16T04:30:27.264Z,20.34
2024-04-16T04:31:33.646Z,20.34
2024-04-16T04:32:40.051Z,20.34
2024-04-16T04:33:46.398Z,20.33
2024-04-16T04:34:52.717Z,20.34
2024-04-16T04:35:59.046Z,20.34
2024-04-16T04:37:05.389Z,20.34
2024-04-16T04:38:11.695Z,20.34
2024-04-16T04:39:18.050Z,20.34
2024-04-16T04:40:24.402Z,20.34
2024-04-16T04:41:30.739Z,20.34
2024-04-16T04:42:37.069Z,20.34
2024-04-16T04:43:43.471Z,20.34
2024-04-16T04:44:49.787Z,20.34
2024-04-16T04:45:56.090Z,20.34
2024-04-16T04:47:02.427Z,20.34
2024-04-16T04:48:08.836Z,20.34
2024-04-16T04:49:15.222Z,20.34
2024-04-16T04:50:21.521Z,20.34
2024-04-16T04:51:27.837Z,20.34
2024-04-16T04:52:34.198Z,20.34
2024-04-16T04:53:40.519Z,20.34
2024-04-16T04:54:46.928Z,20.34
2024-04-16T04:55:53.207Z,20.35
2024-04-16T04:56:59.528Z,20.34
2024-04-16T04:58:05.880Z,20.34
2024-04-16T04:59:12.172Z,20.34
2024-04-16T05:00:18.484Z,20.35
2024-04-16T05:01:24.886Z,20.35
2024-04-16T05:02:31.232Z,20.35
2024-04-16T05:03:37.619Z,20.35
2024-04-16T05:04:44.044Z,20.35
2024-04-16T05:05:50.346Z,20.35
2024-04-16T05:06:56.656Z,20.35
2024-04-16T05:08:02.985Z,20.35
2024-04-16T05:09:09.308Z,20.36
2024-04-16T05:10:15.680Z,20.36
2024-04-16T05:11:22.003Z,20.36
2024-04-16T05:12:28.314Z,20.36
2024-04-16T05:13:34.755Z,20.36
2024-04-16T05:14:41.109Z,20.36
2024-04-16T05:15:47.440Z,20.36
2024-04-16T05:16:53.746Z,20.37
2024-04-16T05:18:00.299Z,20.37
2024-04-16T05:19:06.677Z,20.38
2024-04-16T05:20:13.017Z,20.38
2024-04-16T05:21:19.325Z,20.38
2024-04-16T05:22:25.674Z,20.38
2024-04-16T05:23:31.995Z,20.38
2024-04-16T05:24:38.311Z,20.38
2024-04-16T05:25:44.706Z,20.38
2024-04-16T05:26:51.007Z,20.39
2024-04-16T05:27:57.324Z,20.39
2024-04-16T05:29:03.635Z,20.39
2024-04-16T05:30:10.000Z,20.40
2024-04-16T05:31:16.346Z,20.40
2024-04-16T05:32:22.682Z,20.41
2024-04-16T05:33:29.025Z,20.41
2024-04-16T05:34:35.401Z,20.41
2024-04-16T05:35:41.714Z,20.41
2024-04-16T05:36:48.054Z,20.41
2024-04-16T05:37:54.363Z,20.42
2024-04-16T05:39:00.674Z,20.42
2024-04-16T05:40:07.018Z,20.43
2024-04-16T05:41:13.327Z,20.43
2024-04-16T05:42:19.692Z,20.44
2024-04-16T05:43:26.046Z,20.44
2024-04-16T05:44:32.349Z,20.45
2024-04-16T05:45:38.650Z,20.45
2024-04-16T05:46:45.073Z,20.46
2024-04-16T05:47:51.482Z,20.47
2024-04-16T05:48:57.796Z,20.48
2024-04-16T05:50:04.347Z,20.48
2024-04-16T05:51:10.685Z,20.49
2024-04-16T05:52:17.030Z,20.49
2024-04-16T05:53:23.380Z,20.50
2024-04-16T05:54:32.625Z,20.51
2024-04-16T05:55:39.234Z,20.52
2024-04-16T05:56:45.563Z,20.53
2024-04-16T05:57:51.885Z,20.54
2024-04-16T05:58:58.263Z,20.56
2024-04-16T06:00:05.131Z,20.58
2024-04-16T06:01:11.679Z,20.60
2024-04-16T06:02:18.166Z,20.61
2024-04-16T06:03:25.246Z,20.62
2024-04-16T06:04:31.598Z,20.64
2024-04-16T06:05:37.944Z,20.67
2024-04-16T06:06:44.248Z,20.71
2024-04-16T06:07:50.643Z,20.74
2024-04-16T06:08:56.937Z,20.76
2024-04-16T06:10:03.352Z,20.77
2024-04-16T06:11:09.662Z,20.77
2024-04-16T06:12:15.978Z,20.79
2024-04-16T06:13:22.328Z,20.80
2024-04-16T06:14:28.622Z,20.82
2024-04-16T06:15:34.981Z,20.83
2024-04-16T06:16:41.359Z,20.85
2024-04-16T06:17:47.708Z,20.87
2024-04-16T06:18:54.009Z,20.89
2024-04-16T06:20:00.328Z,20.91
2024-04-16T06:21:06.653Z,20.96
2024-04-16T06:22:13.024Z,21.01
2024-04-16T06:23:19.320Z,21.04
2024-04-16T06:24:25.648Z,21.07
2024-04-16T06:25:32.033Z,21.09
2024-04-16T06:26:38.390Z,21.10
2024-04-16T06:27:44.698Z,21.11
2024-04-16T06:28:51.040Z,21.16
2024-04-16T06:29:57.343Z,21.26
2024-04-16T06:31:03.723Z,21.35
2024-04-16T06:32:10.133Z,21.44
2024-04-16T06:33:16.537Z,21.51
2024-04-16T06:34:22.885Z,21.51
2024-04-16T06:35:29.180Z,21.50
2024-04-16T06:36:35.522Z,21.53
2024-04-16T06:37:41.936Z,21.56
2024-04-16T06:38:48.268Z,21.58
2024-04-16T06:39:54.591Z,21.64
2024-04-16T06:41:00.951Z,21.68
2024-04-16T06:42:07.280Z,21.75
2024-04-16T06:43:14.211Z,21.80
2024-04-16T06:44:20.516Z,21.86
2024-04-16T06:45:26.846Z,21.92
2024-04-16T06:46:33.233Z,21.96
2024-04-16T06:47:39.594Z,21.99
2024-04-16T06:48:53.556Z,22.03
2024-04-16T06:49:57.326Z,22.06
2024-04-16T06:51:03.626Z,22.12
2024-04-16T06:52:10.005Z,22.19
2024-04-16T06:53:16.335Z,22.24
2024-04-16T06:54:22.696Z,22.30
2024-04-16T06:55:29.149Z,22.35
2024-04-16T06:56:35.567Z,22.42
2024-04-16T06:57:41.860Z,22.49
2024-04-16T06:58:48.213Z,22.54
2024-04-16T06:59:54.525Z,22.60
2024-04-16T07:01:00.895Z,22.66
2024-04-16T07:02:07.209Z,22.74
2024-04-16T07:03:13.529Z,22.80
2024-04-16T07:04:20.562Z,22.86
2024-04-16T07:05:26.915Z,22.94
2024-04-16T07:06:33.222Z,23.01
2024-04-16T07:07:39.564Z,23.08
2024-04-16T07:08:45.890Z,23.13
2024-04-16T07:09:52.203Z,23.17
2024-04-16T07:10:58.548Z,23.20
2024-04-16T07:12:04.880Z,23.21
2024-04-16T07:13:11.228Z,23.23
2024-04-16T07:14:17.555Z,23.24
2024-04-16T07:15:23.871Z,23.23
2024-04-16T07:16:30.259Z,23.22
2024-04-16T07:17:36.620Z,23.21
2024-04-16T07:18:42.932Z,23.19
2024-04-16T07:19:49.286Z,23.18
2024-04-16T07:20:55.589Z,23.17
2024-04-16T07:22:01.932Z,23.15
2024-04-16T07:23:08.244Z,23.14
2024-04-16T07:24:14.585Z,23.14
2024-04-16T07:25:20.989Z,23.13
2024-04-16T07:26:27.411Z,23.14
2024-04-16T07:27:33.772Z,23.13
2024-04-16T07:28:40.178Z,23.14
2024-04-16T07:29:46.526Z,23.15
2024-04-16T07:30:58.204Z,23.18
2024-04-16T07:32:04.206Z,23.24
2024-04-16T07:33:10.947Z,23.26
2024-04-16T07:34:17.418Z,23.25
2024-04-16T07:35:23.739Z,23.24
2024-04-16T07:36:30.085Z,23.26
2024-04-16T07:37:36.454Z,23.28
2024-04-16T07:38:42.813Z,23.30
2024-04-16T07:39:49.140Z,23.31
2024-04-16T07:40:55.474Z,23.33
2024-04-16T07:42:01.792Z,23.35
2024-04-16T07:43:08.132Z,23.38
2024-04-16T07:44:14.471Z,23.43
2024-04-16T07:45:20.791Z,23.44
2024-04-16T07:46:27.159Z,23.45
2024-04-16T07:47:33.651Z,23.47
2024-04-16T07:48:40.034Z,23.46
2024-04-16T07:49:46.384Z,23.47
2024-04-16T07:50:52.740Z,23.49
2024-04-16T07:51:59.056Z,23.50
2024-04-16T07:53:05.422Z,23.51
2024-04-16T07:54:11.782Z,23.54
2024-04-16T07:55:18.139Z,23.57
2024-04-16T07:56:24.464Z,23.64
2024-04-16T07:57:30.798Z,23.66
2024-04-16T07:58:37.215Z,23.65
2024-04-16T07:59:43.536Z,23.70
2024-04-16T08:00:49.869Z,23.71
2024-04-16T08:01:56.241Z,23.76
2024-04-16T08:03:02.658Z,23.86
2024-04-16T08:04:09.114Z,23.94
2024-04-16T08:05:15.492Z,24.01
2024-04-16T08:06:21.810Z,24.07
2024-04-16T08:07:28.166Z,24.13
2024-04-16T08:08:36.311Z,24.16
2024-04-16T08:09:43.038Z,24.12
2024-04-16T08:10:49.472Z,24.09
2024-04-16T08:11:55.813Z,24.06
2024-04-16T08:13:02.160Z,24.03
2024-04-16T08:14:09.612Z,24.04
2024-04-16T08:15:16.026Z,24.07
2024-04-16T08:16:22.601Z,24.09
2024-04-16T08:17:29.139Z,24.09
2024-04-16T08:18:35.566Z,24.06
2024-04-16T08:19:41.898Z,24.03
2024-04-16T08:20:48.183Z,24.00
2024-04-16T08:21:58.538Z,24.00
2024-04-16T08:23:05.756Z,24.00
2024-04-16T08:24:12.110Z,23.98
2024-04-16T08:25:18.448Z,23.95
2024-04-16T08:26:24.781Z,23.95
2024-04-16T08:27:31.097Z,23.94
2024-04-16T08:28:37.980Z,23.93
2024-04-16T08:29:44.408Z,23.93
2024-04-16T08:30:50.729Z,23.94
2024-04-16T08:31:57.045Z,23.94
2024-04-16T08:33:03.584Z,23.94
2024-04-16T08:34:10.087Z,23.94
2024-04-16T08:35:16.583Z,23.94
2024-04-16T08:36:22.975Z,23.94
2024-04-16T08:37:29.434Z,23.95
2024-04-16T08:38:35.911Z,23.95
2024-04-16T08:39:42.269Z,23.93
2024-04-16T08:40:48.641Z,23.94
2024-04-16T08:41:54.964Z,23.94
2024-04-16T08:43:01.329Z,23.92
2024-04-16T08:44:10.591Z,23.91
2024-04-16T08:45:17.446Z,23.91
2024-04-16T08:46:23.797Z,23.92
2024-04-16T08:47:30.212Z,23.92
2024-04-16T08:48:36.673Z,23.94
2024-04-16T08:49:43.699Z,23.96
2024-04-16T08:50:50.166Z,23.96
2024-04-16T08:51:56.478Z,23.97
2024-04-16T08:53:02.814Z,23.98
2024-04-16T08:54:09.179Z,23.99
2024-04-16T08:55:15.556Z,24.01
2024-04-16T08:56:21.880Z,24.02
2024-04-16T08:57:28.735Z,24.02
2024-04-16T08:58:35.099Z,24.02
2024-04-16T08:59:41.443Z,24.02
2024-04-16T09:00:47.822Z,24.02
2024-04-16T09:01:54.430Z,24.01
2024-04-16T09:03:00.739Z,24.00
2024-04-16T09:04:07.135Z,23.98
2024-04-16T09:05:13.562Z,23.97
2024-04-16T09:06:19.916Z,23.96
2024-04-16T09:07:27.300Z,23.94
2024-04-16T09:08:33.646Z,23.93
2024-04-16T09:09:39.983Z,23.92
2024-04-16T09:10:46.523Z,23.92
2024-04-16T09:11:54.288Z,23.91
2024-04-16T09:13:00.801Z,23.90
2024-04-16T09:14:07.112Z,23.90
2024-04-16T09:15:13.488Z,23.90
2024-04-16T09:16:19.880Z,23.88
2024-04-16T09:17:26.926Z,23.87
2024-04-16T09:18:33.335Z,23.87
2024-04-16T09:19:39.693Z,23.86
2024-04-16T09:20:46.061Z,23.86
2024-04-16T09:21:52.379Z,23.86
2024-04-16T09:23:00.021Z,23.86
2024-04-16T09:24:07.459Z,23.85
2024-04-16T09:25:13.803Z,23.85
2024-04-16T09:26:20.139Z,23.85
2024-04-16T09:27:26.473Z,23.85
2024-04-16T09:28:32.886Z,23.86
2024-04-16T09:29:39.196Z,23.86
2024-04-16T09:30:45.543Z,23.87
2024-04-16T09:31:51.899Z,23.88
2024-04-16T09:32:58.330Z,23.88
2024-04-16T09:34:04.999Z,23.88
2024-04-16T09:35:11.342Z,23.87
2024-04-16T09:36:17.726Z,23.89
2024-04-16T09:37:24.045Z,23.89
2024-04-16T09:38:30.346Z,23.90
2024-04-16T09:39:36.678Z,23.89
2024-04-16T09:40:43.050Z,23.89
2024-04-16T09:41:49.379Z,23.88
2024-04-16T09:42:55.692Z,23.87
2024-04-16T09:44:02.001Z,23.87
2024-04-16T09:45:08.361Z,23.88
2024-04-16T09:46:14.707Z,23.89
2024-04-16T09:47:21.061Z,23.89
2024-04-16T09:48:27.417Z,23.89
2024-04-16T09:49:41.102Z,23.90
2024-04-16T09:50:50.669Z,23.90
2024-04-16T09:51:56.244Z,23.90
2024-04-16T09:53:02.574Z,23.90
2024-04-16T09:54:08.913Z,23.91
2024-04-16T09:55:15.332Z,23.91
2024-04-16T09:56:21.640Z,23.90
2024-04-16T09:57:27.962Z,23.89
2024-04-16T09:58:35.194Z,23.89
2024-04-16T09:59:41.562Z,23.88
2024-04-16T10:00:47.910Z,23.87
2024-04-16T10:01:54.223Z,23.86
2024-04-16T10:03:00.753Z,23.87
2024-04-16T10:04:07.216Z,23.86
2024-04-16T10:05:13.546Z,23.86
2024-04-16T10:06:19.875Z,23.87
2024-04-16T10:07:26.213Z,23.89
2024-04-16T10:08:32.503Z,23.90
2024-04-16T10:09:38.833Z,23.92
2024-04-16T10:10:45.210Z,23.93
2024-04-16T10:11:51.629Z,23.95
2024-04-16T10:12:57.931Z,23.96
2024-04-16T10:14:04.257Z,23.97
2024-04-16T10:15:10.621Z,23.97
2024-04-16T10:16:17.047Z,23.97
2024-04-16T10:17:23.468Z,23.97
2024-04-16T10:18:29.833Z,23.96
2024-04-16T10:19:36.171Z,23.97
2024-04-16T10:20:42.480Z,23.97
2024-04-16T10:21:48.833Z,23.97
2024-04-16T10:22:55.141Z,23.98
2024-04-16T10:24:01.475Z,23.98
2024-04-16T10:25:07.834Z,23.99
2024-04-16T10:26:14.180Z,23.99
2024-04-16T10:27:20.494Z,24.00
2024-04-16T10:28:26.868Z,23.99
2024-04-16T10:29:33.230Z,23.99
2024-04-16T10:30:39.576Z,23.98
2024-04-16T10:31:46.227Z,23.98
2024-04-16T10:32:52.862Z,23.97
2024-04-16T10:33:59.256Z,23.96
2024-04-16T10:35:05.612Z,23.96
2024-04-16T10:36:11.926Z,23.95
2024-04-16T10:37:18.364Z,23.96
2024-04-16T10:38:24.678Z,23.96
2024-04-16T10:39:31.046Z,23.95
2024-04-16T10:40:37.428Z,23.95
2024-04-16T10:41:43.763Z,23.94
2024-04-16T10:42:50.138Z,23.96
2024-04-16T10:43:56.536Z,23.97
2024-04-16T10:45:02.888Z,23.97
2024-04-16T10:46:09.379Z,23.97
2024-04-16T10:47:15.778Z,23.97
2024-04-16T10:48:22.128Z,23.97
2024-04-16T10:49:28.679Z,23.97
2024-04-16T10:50:35.072Z,23.97
2024-04-16T10:51:41.384Z,23.97
2024-04-16T10:52:47.799Z,23.97
2024-04-16T10:53:54.544Z,23.97
2024-04-16T10:55:00.862Z,23.97
2024-04-16T10:56:07.184Z,23.97
2024-04-16T10:57:13.504Z,23.97
2024-04-16T10:58:20.047Z,23.97
2024-04-16T10:59:26.406Z,23.96
2024-04-16T11:00:32.816Z,23.96
2024-04-16T11:01:39.196Z,23.95
2024-04-16T11:02:45.502Z,23.95
2024-04-16T11:03:51.838Z,23.79
2024-04-16T11:04:58.192Z,22.69
2024-04-16T11:06:04.511Z,21.34
2024-04-16T11:07:10.853Z,20.56
2024-04-16T11:08:17.166Z,19.89
2024-04-16T11:09:23.510Z,19.30
2024-04-16T11:10:29.865Z,18.83
2024-04-16T11:11:36.234Z,18.44
2024-04-16T11:12:42.552Z,18.17
2024-04-16T11:13:48.920Z,17.90
2024-04-16T11:14:55.239Z,17.75
2024-04-16T11:16:01.567Z,17.63
2024-04-16T11:17:07.934Z,17.42
2024-04-16T11:18:14.315Z,17.21
2024-04-16T11:19:20.671Z,17.11
2024-04-16T11:20:26.991Z,17.01
2024-04-16T11:21:33.371Z,16.97
2024-04-16T11:22:39.822Z,16.89
2024-04-16T11:23:46.168Z,16.87
2024-04-16T11:24:54.703Z,16.92
2024-04-16T11:26:03.076Z,16.86
2024-04-16T11:27:09.679Z,16.73
2024-04-16T11:28:16.079Z,16.58
2024-04-16T11:29:22.419Z,16.49
2024-04-16T11:30:28.761Z,16.46
2024-04-16T11:31:35.169Z,16.44
2024-04-16T11:32:41.566Z,16.45
2024-04-16T11:33:48.712Z,16.48
2024-04-16T11:34:55.323Z,16.48
2024-04-16T11:36:01.619Z,16.33
2024-04-16T11:37:07.990Z,16.12
2024-04-16T11:38:14.375Z,16.11
2024-04-16T11:39:20.711Z,16.11
2024-04-16T11:40:27.143Z,16.19
2024-04-16T11:41:33.476Z,16.28
2024-04-16T11:42:39.837Z,16.32
2024-04-16T11:43:46.367Z,16.40
2024-04-16T11:44:52.716Z,16.46
2024-04-16T11:46:00.078Z,16.54
2024-04-16T11:47:06.478Z,16.55
2024-04-16T11:48:12.821Z,16.46
2024-04-16T11:49:19.173Z,16.39
2024-04-16T11:50:25.470Z,16.33
2024-04-16T11:51:31.790Z,16.40
2024-04-16T11:52:38.262Z,16.58
2024-04-16T11:53:45.680Z,16.79
2024-04-16T11:54:51.989Z,17.04
2024-04-16T11:55:59.341Z,17.30
2024-04-16T11:57:05.772Z,17.53
2024-04-16T11:58:12.150Z,17.75
2024-04-16T11:59:18.724Z,17.95
2024-04-16T12:00:25.232Z,18.12
2024-04-16T12:01:31.781Z,18.27
2024-04-16T12:02:38.102Z,18.42
2024-04-16T12:03:44.479Z,18.55
2024-04-16T12:04:51.467Z,18.66
2024-04-16T12:05:57.804Z,18.78
2024-04-16T12:07:04.178Z,18.87
2024-04-16T12:08:11.955Z,18.98
2024-04-16T12:09:18.385Z,19.11
2024-04-16T12:10:25.715Z,19.23
2024-04-16T12:11:32.100Z,19.35
2024-04-16T12:12:38.478Z,19.46
2024-04-16T12:13:44.862Z,19.56
2024-04-16T12:14:51.225Z,19.66
2024-04-16T12:15:57.539Z,19.76
2024-04-16T12:17:03.984Z,19.85
2024-04-16T12:18:10.320Z,19.93
2024-04-16T12:19:16.661Z,19.99
2024-04-16T12:20:22.983Z,20.08
2024-04-16T12:21:29.307Z,20.14
2024-04-16T12:22:35.698Z,20.16
2024-04-16T12:23:42.008Z,20.16
2024-04-16T12:24:48.341Z,20.14
2024-04-16T12:25:54.829Z,20.16
2024-04-16T12:27:01.178Z,20.17
2024-04-16T12:28:07.543Z,20.18
2024-04-16T12:29:13.911Z,20.19
2024-04-16T12:30:20.238Z,20.21
2024-04-16T12:31:26.647Z,20.23
2024-04-16T12:32:33.047Z,20.26
2024-04-16T12:33:39.445Z,20.26
2024-04-16T12:34:45.815Z,20.27
2024-04-16T12:35:52.175Z,20.29
2024-04-16T12:36:58.528Z,20.33
2024-04-16T12:38:04.867Z,20.38
2024-04-16T12:39:11.177Z,20.42
2024-04-16T12:40:17.596Z,20.38
2024-04-16T12:41:23.920Z,20.36
2024-04-16T12:42:31.205Z,20.36
2024-04-16T12:43:37.593Z,20.43
2024-04-16T12:44:43.905Z,20.48
2024-04-16T12:45:51.547Z,20.49
2024-04-16T12:46:59.114Z,20.41
2024-04-16T12:48:05.468Z,20.36
2024-04-16T12:49:11.842Z,20.32
2024-04-16T12:50:19.703Z,20.30
2024-04-16T12:51:26.095Z,20.30
2024-04-16T12:52:32.434Z,20.31
2024-04-16T12:53:38.806Z,20.33
2024-04-16T12:54:45.149Z,20.40
2024-04-16T12:55:51.553Z,20.45
2024-04-16T12:56:57.885Z,20.47
2024-04-16T12:58:04.186Z,20.51
2024-04-16T12:59:10.543Z,20.54
2024-04-16T13:00:16.861Z,20.62
2024-04-16T13:01:23.259Z,20.66
2024-04-16T13:02:29.579Z,20.66
2024-04-16T13:03:35.980Z,20.66
2024-04-16T13:04:42.380Z,20.67
2024-04-16T13:05:48.741Z,20.70
2024-04-16T13:06:55.377Z,20.72
2024-04-16T13:08:01.678Z,20.72
2024-04-16T13:09:08.032Z,20.74
2024-04-16T13:10:14.388Z,20.73
2024-04-16T13:11:20.873Z,20.74
2024-04-16T13:12:27.244Z,20.77
2024-04-16T13:13:33.623Z,20.83
2024-04-16T13:14:39.949Z,20.87
2024-04-16T13:15:46.330Z,20.90
2024-04-16T13:16:52.639Z,20.86
2024-04-16T13:17:59.055Z,20.76
2024-04-16T13:19:05.431Z,20.65
2024-04-16T13:20:11.749Z,20.61
2024-04-16T13:21:18.111Z,20.60
2024-04-16T13:22:24.456Z,20.56
2024-04-16T13:23:30.767Z,20.52
2024-04-16T13:24:37.076Z,20.52
2024-04-16T13:25:43.463Z,20.51
2024-04-16T13:26:49.778Z,20.51
2024-04-16T13:27:56.084Z,20.56
2024-04-16T13:29:02.447Z,20.60
2024-04-16T13:30:08.770Z,20.63
2024-04-16T13:31:15.345Z,20.66
2024-04-16T13:32:21.709Z,20.69
2024-04-16T13:33:28.065Z,20.72
2024-04-16T13:34:34.472Z,20.76
2024-04-16T13:35:40.825Z,20.81
2024-04-16T13:36:47.131Z,20.85
2024-04-16T13:37:53.513Z,20.89
2024-04-16T13:38:59.859Z,20.93
2024-04-16T13:40:09.137Z,20.93
2024-04-16T13:41:17.086Z,20.91
2024-04-16T13:42:23.432Z,20.94
2024-04-16T13:43:29.841Z,20.95
2024-04-16T13:44:36.216Z,20.95
2024-04-16T13:45:43.617Z,20.92
2024-04-16T13:46:50.098Z,20.90
2024-04-16T13:47:56.500Z,20.89
2024-04-16T13:49:02.835Z,20.86
2024-04-16T13:50:09.164Z,20.76
2024-04-16T13:51:15.512Z,20.60
2024-04-16T13:52:21.871Z,20.51
2024-04-16T13:53:28.178Z,20.50
2024-04-16T13:54:34.536Z,20.53
2024-04-16T13:55:40.936Z,20.59
2024-04-16T13:56:47.279Z,20.63
2024-04-16T13:57:53.611Z,20.67
2024-04-16T13:58:59.946Z,20.71
2024-04-16T14:00:06.273Z,20.76
2024-04-16T14:01:12.687Z,20.78
2024-04-16T14:02:19.160Z,20.80
2024-04-16T14:03:25.759Z,20.82
2024-04-16T14:04:32.080Z,20.84
2024-04-16T14:05:38.401Z,20.87
2024-04-16T14:06:44.730Z,20.92
2024-04-16T14:07:51.069Z,20.97
2024-04-16T14:08:57.385Z,20.98
2024-04-16T14:10:03.720Z,20.97
2024-04-16T14:11:10.196Z,20.95
2024-04-16T14:12:16.586Z,20.94
2024-04-16T14:13:22.919Z,20.94
2024-04-16T14:14:29.228Z,20.97
2024-04-16T14:15:35.548Z,20.98